« 定点 富山空港 2020/7/20 mon | トップページ | 定点 富山空港 2020/7/24 fri »

2020/07/21

定点 在所 2020/7/21 tue

RJNT 202300Z 17004KT 110V220 9999 FEW035 SCT060 BKN/// 28/23 Q1011

昨日、また来てねーと、見送ったら、あら、今日が訓練本番日とのことで、朝覗いてみました。

20200721_iwase_00jg

今日は、本管中隊の救急車も来ていました。

20200721_iwase_01jg

お昼のニュースでNHKが放送してました。

###

###

20200721_iwase_02jg

みんな、若いよなー 頼むちゃ

20200721_iwase_03syouyoumaru

松曜丸 JD2564 明和海運

20200721_iwase_04ja05an

ANA313 RJTT-RJNT JA05AN B737-781

20200721_iwase_05ja05an

本日は、河原には行かず、商用。

 

|

« 定点 富山空港 2020/7/20 mon | トップページ | 定点 富山空港 2020/7/24 fri »

富山空港」カテゴリの記事

陸上自衛隊」カテゴリの記事

コメント

コメントを書く



(ウェブ上には掲載しません)


コメントは記事投稿者が公開するまで表示されません。



« 定点 富山空港 2020/7/20 mon | トップページ | 定点 富山空港 2020/7/24 fri »